Whiting Field Naval Air Station South Airport
KNDZ : now visible

Airfield :











YOU CAN JOIN US ON...

 
LOGIN :

Register | Disclaimer

   EN    FR    IT 

 









Legend :    VFR   Marginal VFR   IFR   Intensive IFR   Very Intensive IFR
Visi :
Ceiling :
>= 8 km
>= 3000ft
5 to 8 km
1000 to 3000 ft
1500m to 5 km
500 to 1000 ft
800 to 1500m
200 to 500 ft
< 800m
< 200 ft
Symbols :   Thunderstorms  Fog  Heavy snow  Heavy precipitations  Wind > 20 kt







- Airport Elevation : 177 ft


KNDZ - Whiting Field Naval Air Station South

CURRENT METAR :
  • 200856Z AUTO 07008KT 10SM CLR 21/14 A3011 RMK AO2 SLP180 T02110144 53003 $

EXPIRED METARs :
  • 200756Z AUTO 08009KT 10SM CLR 22/14 A3010 RMK AO2 SLP177 T02170139 $
  • 200656Z AUTO 08005KT 10SM CLR 22/15 A3010 RMK AO2 SLP179 T02220150 $

TAF N/A
No reported NOTAMs for that airfield.



MET'MAP, your aeronautical weather chart ! - Copyright ORBIFLY December 2007 - Disclaimer

ORBIFLY MET'MAP TEAM :

Programming & Development : Alexandra Zaïnal
Concept & Development : Baudouin d'Aumeries
Co-Development & Prog : Marc-Olivier Méhu
Technical & hardware support : Manuel Goepfert

Contact : metmap@orbifly.com




SOURCES & CREDITS :

   NOAA       Earth
Advisory